Terminal Aerodrome Forecast
Issued by NWS Pocatello, ID

Home | Current Version | Previous Version | Text Only | Print | Product List | Glossary On
Versions: 1 2 3 4 5 6 7 8 9 10 11 12 13 14 15 16
000
FTUS45 KPIH 032358
TAFPIH
TAF
KPIH 032358Z 0400/0424 VRB06KT P6SM VCTS SCT060CB BKN110
      TEMPO 0400/0402 -TSRA OVC060CB
     FM040300 20008KT P6SM FEW120
     FM041900 28008KT P6SM VCTS SCT080CB OVC150=

USA.gov is the U.S. government's official web portal to all federal, state and local government web resources and services.